createdAt,value
2023-03-27T00:01:17.771Z,83.29
2023-03-27T00:03:44.853Z,83.29
2023-03-27T00:06:17.083Z,83.37
2023-03-27T00:08:48.732Z,83.41
2023-03-27T00:11:16.854Z,83.96
2023-03-27T00:13:49.998Z,84.03
2023-03-27T00:16:17.655Z,83.84
2023-03-27T00:18:45.038Z,83.79
2023-03-27T00:21:11.629Z,83.87
2023-03-27T00:23:38.142Z,83.94
2023-03-27T00:26:05.515Z,84.11
2023-03-27T00:28:32.333Z,84.10
2023-03-27T00:30:59.371Z,84.05
2023-03-27T00:33:27.150Z,84.19
2023-03-27T00:35:54.219Z,84.47
2023-03-27T00:38:21.073Z,84.63
2023-03-27T00:40:50.580Z,84.56
2023-03-27T00:43:20.531Z,84.79
2023-03-27T00:45:49.010Z,84.90
2023-03-27T00:48:15.963Z,85.14
2023-03-27T00:50:44.271Z,85.12
2023-03-27T00:53:16.006Z,85.06
2023-03-27T00:55:44.698Z,84.67
2023-03-27T00:58:17.697Z,85.22
2023-03-27T01:00:46.679Z,85.29
2023-03-27T01:03:14.234Z,85.37
2023-03-27T01:05:41.182Z,85.34
2023-03-27T01:08:07.970Z,85.56
2023-03-27T01:10:59.185Z,85.52
2023-03-27T01:13:38.669Z,85.74
2023-03-27T01:16:20.299Z,85.99
2023-03-27T01:19:30.427Z,85.85
2023-03-27T01:22:32.559Z,86.31
2023-03-27T01:25:13.047Z,86.51
2023-03-27T01:28:27.023Z,86.66
2023-03-27T01:30:59.606Z,86.99
2023-03-27T01:33:47.085Z,87.17
2023-03-27T01:36:44.204Z,87.45
2023-03-27T01:39:16.629Z,87.41
2023-03-27T01:41:51.388Z,87.84
2023-03-27T01:44:36.319Z,87.21
2023-03-27T01:47:22.167Z,86.92
2023-03-27T01:50:00.123Z,86.61
2023-03-27T01:52:31.737Z,86.35
2023-03-27T01:55:04.909Z,86.33
2023-03-27T01:58:00.461Z,86.21
2023-03-27T02:00:52.318Z,86.32
2023-03-27T02:03:26.589Z,86.31
2023-03-27T02:06:03.241Z,86.05
2023-03-27T02:08:39.559Z,86.43
2023-03-27T02:11:14.169Z,86.34
2023-03-27T02:13:43.342Z,86.57
2023-03-27T02:16:16.504Z,86.40
2023-03-27T02:18:49.727Z,86.66
2023-03-27T02:21:16.370Z,86.78
2023-03-27T02:23:44.651Z,87.05
2023-03-27T02:26:13.286Z,87.42
2023-03-27T02:29:18.281Z,87.45
2023-03-27T02:32:17.450Z,87.39
2023-03-27T02:35:02.784Z,87.70
2023-03-27T02:37:51.155Z,87.80
2023-03-27T02:40:26.185Z,87.77
2023-03-27T02:43:12.580Z,88.16
2023-03-27T02:45:59.804Z,88.34
2023-03-27T02:48:35.343Z,88.41
2023-03-27T02:51:43.296Z,88.66
2023-03-27T02:54:15.873Z,88.90
2023-03-27T02:56:54.860Z,89.01
2023-03-27T02:59:35.464Z,88.98
2023-03-27T03:02:07.980Z,89.20
2023-03-27T03:04:50.566Z,89.19
2023-03-27T03:07:22.750Z,89.65
2023-03-27T03:09:49.222Z,89.82
2023-03-27T03:12:16.020Z,89.84
2023-03-27T03:14:45.271Z,90.11
2023-03-27T03:17:13.075Z,89.93
2023-03-27T03:19:39.721Z,90.06
2023-03-27T03:22:06.911Z,90.00
2023-03-27T03:24:35.633Z,89.89
2023-03-27T03:27:04.511Z,90.21
2023-03-27T03:29:38.243Z,90.35
2023-03-27T03:32:15.693Z,90.96
2023-03-27T03:34:46.637Z,90.95
2023-03-27T03:37:14.994Z,91.27
2023-03-27T03:39:41.452Z,91.48
2023-03-27T03:42:08.173Z,91.38
2023-03-27T03:44:37.065Z,91.58
2023-03-27T03:47:15.627Z,91.57
2023-03-27T03:49:42.614Z,91.50
2023-03-27T03:52:09.615Z,91.20
2023-03-27T03:54:38.662Z,91.50
2023-03-27T03:57:05.571Z,91.66
2023-03-27T03:59:33.830Z,91.77
2023-03-27T04:02:28.325Z,91.95
2023-03-27T04:04:59.884Z,92.14
2023-03-27T04:07:35.609Z,92.07
2023-03-27T04:10:39.314Z,92.22
2023-03-27T04:13:13.572Z,92.33
2023-03-27T04:15:51.429Z,92.47
2023-03-27T04:18:32.447Z,92.83
2023-03-27T04:21:01.605Z,92.94
2023-03-27T04:23:33.670Z,93.04
2023-03-27T04:26:02.005Z,93.25
2023-03-27T04:28:51.590Z,93.64
2023-03-27T04:31:39.113Z,93.10
2023-03-27T04:34:25.292Z,93.40
2023-03-27T04:37:23.079Z,93.50
2023-03-27T04:40:20.657Z,93.64
2023-03-27T04:42:47.232Z,93.75
2023-03-27T04:45:20.491Z,93.92
2023-03-27T04:47:49.737Z,93.79
2023-03-27T04:50:17.172Z,93.79
2023-03-27T04:52:44.778Z,93.61
2023-03-27T04:55:12.203Z,93.59
2023-03-27T04:57:41.690Z,93.28
2023-03-27T05:00:16.283Z,93.24
2023-03-27T05:02:47.560Z,93.29
2023-03-27T05:05:36.764Z,93.21
2023-03-27T05:08:05.334Z,93.42
2023-03-27T05:10:31.779Z,93.45
2023-03-27T05:12:59.766Z,93.53
2023-03-27T05:15:26.482Z,93.62
2023-03-27T05:17:55.052Z,93.67
2023-03-27T05:20:25.072Z,93.51
2023-03-27T05:22:56.266Z,93.46
2023-03-27T05:25:25.952Z,93.42
2023-03-27T05:27:54.395Z,93.36
2023-03-27T05:30:23.414Z,93.57
2023-03-27T05:32:59.080Z,93.29
2023-03-27T05:35:28.599Z,93.17
2023-03-27T05:37:57.469Z,93.15
2023-03-27T05:40:34.131Z,93.04
2023-03-27T05:43:01.641Z,93.02
2023-03-27T05:45:29.850Z,93.08
2023-03-27T05:47:58.694Z,93.33
2023-03-27T05:50:28.860Z,93.38
2023-03-27T05:52:59.860Z,93.17
2023-03-27T05:55:34.343Z,93.07
2023-03-27T05:58:01.544Z,92.94
2023-03-27T06:00:31.840Z,93.14
2023-03-27T06:03:01.169Z,93.03
2023-03-27T06:06:00.255Z,92.81
2023-03-27T06:08:32.461Z,92.56
2023-03-27T06:10:59.257Z,92.77
2023-03-27T06:13:33.611Z,92.66
2023-03-27T06:16:06.859Z,92.79
2023-03-27T06:18:56.284Z,92.56
2023-03-27T06:21:23.670Z,92.41
2023-03-27T06:23:57.079Z,92.46
2023-03-27T06:26:23.609Z,92.42
2023-03-27T06:28:50.216Z,92.30
2023-03-27T06:31:17.643Z,92.47
2023-03-27T06:34:02.589Z,88.75
2023-03-27T06:36:51.908Z,83.50
2023-03-27T06:39:18.526Z,80.42
2023-03-27T06:41:50.478Z,78.77
2023-03-27T06:44:24.723Z,77.57
2023-03-27T06:46:59.930Z,77.01
2023-03-27T06:49:33.798Z,77.77
2023-03-27T06:52:09.018Z,79.48
2023-03-27T06:54:35.669Z,80.93
2023-03-27T06:57:02.773Z,80.81
2023-03-27T06:59:40.826Z,80.71
2023-03-27T07:02:11.681Z,80.83
2023-03-27T07:05:04.321Z,79.69
2023-03-27T07:07:41.472Z,80.08
2023-03-27T07:10:10.467Z,79.63
2023-03-27T07:12:38.798Z,79.03
2023-03-27T07:15:06.324Z,79.17
2023-03-27T07:17:45.890Z,78.71
2023-03-27T07:20:16.233Z,78.42
2023-03-27T07:22:43.185Z,77.59
2023-03-27T07:25:20.056Z,77.21
2023-03-27T07:27:46.872Z,76.81
2023-03-27T07:30:14.214Z,76.49
2023-03-27T07:32:44.707Z,75.79
2023-03-27T07:35:11.869Z,75.60
2023-03-27T07:37:57.653Z,75.83
2023-03-27T07:40:39.871Z,75.34
2023-03-27T07:43:39.104Z,73.73
2023-03-27T07:46:06.889Z,73.29
2023-03-27T07:48:35.849Z,71.70
2023-03-27T07:51:13.251Z,70.90
2023-03-27T07:53:41.471Z,70.89
2023-03-27T07:56:33.764Z,69.88
2023-03-27T07:59:21.993Z,69.97
2023-03-27T08:01:50.675Z,70.71
2023-03-27T08:04:18.236Z,69.75
2023-03-27T08:06:58.697Z,69.92
2023-03-27T08:09:25.543Z,70.06
2023-03-27T08:11:52.029Z,69.35
2023-03-27T08:14:18.903Z,69.15
2023-03-27T08:16:46.386Z,68.89
2023-03-27T08:19:14.046Z,69.28
2023-03-27T08:21:45.509Z,69.48
2023-03-27T08:24:11.981Z,70.26
2023-03-27T08:27:07.550Z,70.91
2023-03-27T08:29:39.038Z,69.49
2023-03-27T08:32:10.560Z,68.22
2023-03-27T08:34:40.761Z,67.87
2023-03-27T08:37:08.749Z,67.72
2023-03-27T08:39:58.721Z,66.66
2023-03-27T08:42:34.178Z,66.62
2023-03-27T08:45:09.484Z,65.88
2023-03-27T08:47:50.358Z,64.82
2023-03-27T08:50:41.097Z,64.98
2023-03-27T08:53:32.189Z,64.44
2023-03-27T08:56:01.278Z,63.21
2023-03-27T08:58:40.221Z,62.18
2023-03-27T09:01:48.608Z,61.85
2023-03-27T09:04:28.832Z,61.92
2023-03-27T09:07:06.141Z,61.63
2023-03-27T09:10:01.903Z,61.56
2023-03-27T09:13:04.197Z,61.56
2023-03-27T09:15:39.898Z,59.02
2023-03-27T09:18:14.394Z,61.99
2023-03-27T09:20:46.694Z,60.42
2023-03-27T09:23:25.868Z,60.12
2023-03-27T09:26:16.388Z,61.96
2023-03-27T09:29:20.770Z,66.48
2023-03-27T09:31:56.216Z,70.93
2023-03-27T09:34:27.456Z,72.87
2023-03-27T09:36:54.424Z,74.34
2023-03-27T09:39:27.376Z,75.16
2023-03-27T09:42:16.631Z,76.80
2023-03-27T09:44:50.402Z,77.24
2023-03-27T09:47:37.518Z,77.12
2023-03-27T09:50:28.378Z,76.74
2023-03-27T09:53:12.792Z,76.44
2023-03-27T09:55:56.420Z,76.74
2023-03-27T09:58:27.898Z,76.31
2023-03-27T10:01:20.258Z,76.74
2023-03-27T10:03:56.547Z,76.43
2023-03-27T10:06:48.426Z,76.76
2023-03-27T10:09:35.966Z,75.93
2023-03-27T10:12:10.210Z,76.05
2023-03-27T10:14:41.378Z,73.95
2023-03-27T10:17:25.384Z,73.80
2023-03-27T10:20:11.185Z,74.00
2023-03-27T10:22:41.985Z,74.72
2023-03-27T10:25:39.344Z,75.01
2023-03-27T10:28:28.084Z,73.54
2023-03-27T10:31:28.380Z,72.58
2023-03-27T10:34:03.635Z,70.52
2023-03-27T10:36:49.347Z,71.09
2023-03-27T10:39:20.746Z,70.49
2023-03-27T10:42:16.794Z,69.74
2023-03-27T10:44:49.177Z,68.35
2023-03-27T10:47:19.922Z,70.75
2023-03-27T10:50:10.869Z,70.69
2023-03-27T10:52:55.953Z,71.43
2023-03-27T10:56:05.900Z,72.30
2023-03-27T10:58:52.046Z,71.97
2023-03-27T11:01:34.535Z,69.78
2023-03-27T11:04:11.069Z,68.61
2023-03-27T11:06:49.341Z,67.54
2023-03-27T11:09:26.813Z,68.17
2023-03-27T11:12:10.311Z,63.41
2023-03-27T11:14:59.316Z,62.68
2023-03-27T11:17:35.949Z,60.50
2023-03-27T11:20:26.460Z,62.21
2023-03-27T11:22:59.558Z,59.55
2023-03-27T11:25:45.094Z,59.58
2023-03-27T11:28:24.814Z,58.98
2023-03-27T11:30:56.552Z,61.48
2023-03-27T11:33:27.636Z,63.96
2023-03-27T11:36:16.268Z,66.99
2023-03-27T11:38:56.428Z,69.31
2023-03-27T11:41:23.312Z,71.09
2023-03-27T11:43:50.033Z,72.45
2023-03-27T11:47:24.944Z,73.30
2023-03-27T11:50:12.157Z,73.30
2023-03-27T11:53:06.210Z,72.38
2023-03-27T11:56:13.321Z,70.43
2023-03-27T11:59:18.485Z,69.98
2023-03-27T12:02:21.525Z,68.69
2023-03-27T12:04:55.608Z,67.74
2023-03-27T12:08:02.359Z,68.08
2023-03-27T12:10:37.294Z,66.67
2023-03-27T12:13:38.561Z,65.90
2023-03-27T12:16:19.483Z,64.82
2023-03-27T12:19:39.201Z,62.88
2023-03-27T12:22:35.724Z,64.75
2023-03-27T12:25:36.200Z,68.07
2023-03-27T12:28:49.366Z,70.44
2023-03-27T12:31:28.416Z,71.44
2023-03-27T12:34:05.003Z,72.46
2023-03-27T12:36:37.418Z,72.96
2023-03-27T12:39:24.312Z,73.07
2023-03-27T12:41:51.078Z,70.86
2023-03-27T12:44:31.308Z,71.45
2023-03-27T12:47:22.722Z,71.69
2023-03-27T12:49:59.612Z,72.73
2023-03-27T12:52:32.774Z,74.13
2023-03-27T12:55:14.177Z,72.02
2023-03-27T12:58:01.645Z,70.72
2023-03-27T13:01:00.527Z,71.02
2023-03-27T13:03:55.008Z,69.54
2023-03-27T13:06:36.714Z,70.38
2023-03-27T13:09:23.310Z,67.80
2023-03-27T13:12:28.261Z,68.20
2023-03-27T13:15:31.723Z,67.60
2023-03-27T13:18:19.309Z,67.08
2023-03-27T13:20:56.364Z,66.83
2023-03-27T13:23:41.519Z,66.18
2023-03-27T13:26:24.814Z,66.37
2023-03-27T13:28:56.432Z,66.18
2023-03-27T13:31:46.979Z,65.07
2023-03-27T13:34:35.878Z,65.71
2023-03-27T13:37:09.656Z,65.38
2023-03-27T13:40:01.305Z,64.90
2023-03-27T13:42:34.997Z,65.01
2023-03-27T13:45:28.150Z,66.12
2023-03-27T13:48:45.142Z,64.54
2023-03-27T13:51:28.221Z,63.67
2023-03-27T13:54:36.875Z,63.95
2023-03-27T13:57:37.261Z,64.32
2023-03-27T14:00:18.001Z,63.58
2023-03-27T14:03:04.297Z,63.38
2023-03-27T14:05:56.488Z,63.08
2023-03-27T14:08:40.184Z,63.18
2023-03-27T14:11:40.029Z,62.25
2023-03-27T14:14:38.436Z,62.46
2023-03-27T14:17:33.660Z,61.76
2023-03-27T14:20:22.018Z,60.84
2023-03-27T14:23:04.674Z,60.44
2023-03-27T14:26:20.072Z,60.26
2023-03-27T14:28:55.587Z,59.93
2023-03-27T14:31:37.675Z,58.12
2023-03-27T14:34:12.103Z,58.45
2023-03-27T14:36:49.728Z,60.02
2023-03-27T14:39:25.955Z,60.66
2023-03-27T14:42:02.284Z,61.75
2023-03-27T14:44:32.634Z,61.30
2023-03-27T14:47:11.865Z,60.15
2023-03-27T14:49:46.163Z,59.21
2023-03-27T14:52:24.858Z,59.16
2023-03-27T14:55:15.015Z,59.40
2023-03-27T14:57:41.909Z,58.68
2023-03-27T15:00:16.365Z,58.57
2023-03-27T15:02:47.960Z,59.82
2023-03-27T15:05:18.059Z,60.59
2023-03-27T15:07:50.526Z,63.32
2023-03-27T15:10:27.950Z,64.81
2023-03-27T15:13:09.819Z,61.64
2023-03-27T15:15:44.168Z,59.57
2023-03-27T15:18:33.773Z,55.30
2023-03-27T15:21:06.374Z,55.77
2023-03-27T15:23:58.747Z,56.08
2023-03-27T15:26:30.365Z,55.02
2023-03-27T15:29:22.974Z,52.06
2023-03-27T15:31:51.846Z,51.94
2023-03-27T15:34:23.729Z,52.44
2023-03-27T15:37:05.786Z,52.10
2023-03-27T15:39:34.328Z,51.25
2023-03-27T15:42:10.864Z,52.40
2023-03-27T15:44:39.628Z,52.97
2023-03-27T15:47:24.674Z,53.97
2023-03-27T15:50:18.413Z,54.35
2023-03-27T15:52:52.667Z,54.88
2023-03-27T15:55:44.221Z,56.22
2023-03-27T15:58:19.890Z,56.81
2023-03-27T16:00:51.570Z,56.63
2023-03-27T16:03:23.444Z,57.02
2023-03-27T16:05:56.708Z,57.25
2023-03-27T16:08:31.540Z,58.62
2023-03-27T16:10:59.063Z,59.29
2023-03-27T16:13:56.737Z,58.58
2023-03-27T16:16:29.180Z,57.68
2023-03-27T16:19:00.058Z,56.64
2023-03-27T16:21:27.661Z,56.57
2023-03-27T16:23:54.633Z,56.69
2023-03-27T16:26:31.522Z,57.74
2023-03-27T16:29:01.739Z,57.60
2023-03-27T16:31:28.294Z,57.25
2023-03-27T16:33:54.782Z,57.03
2023-03-27T16:36:39.490Z,56.57
2023-03-27T16:39:09.077Z,55.41
2023-03-27T16:41:36.236Z,55.36
2023-03-27T16:44:03.307Z,54.60
2023-03-27T16:46:31.528Z,53.75
2023-03-27T16:48:58.497Z,54.05
2023-03-27T16:51:27.409Z,53.52
2023-03-27T16:53:54.054Z,53.20
2023-03-27T16:56:21.183Z,54.12
2023-03-27T16:58:48.526Z,54.64
2023-03-27T17:01:15.508Z,55.43
2023-03-27T17:03:42.268Z,55.88
2023-03-27T17:06:11.339Z,58.63
2023-03-27T17:08:38.501Z,61.58
2023-03-27T17:11:10.999Z,62.90
2023-03-27T17:13:40.211Z,64.03
2023-03-27T17:16:08.489Z,64.64
2023-03-27T17:18:34.914Z,65.73
2023-03-27T17:21:01.670Z,66.11
2023-03-27T17:23:28.249Z,66.58
2023-03-27T17:25:54.966Z,66.67
2023-03-27T17:28:21.681Z,67.33
2023-03-27T17:31:00.984Z,67.45
2023-03-27T17:33:30.384Z,67.80
2023-03-27T17:35:57.651Z,67.94
2023-03-27T17:38:24.597Z,68.32
2023-03-27T17:40:51.624Z,68.55
2023-03-27T17:43:18.411Z,68.57
2023-03-27T17:45:45.317Z,69.13
2023-03-27T17:48:11.894Z,69.31
2023-03-27T17:50:39.388Z,69.04
2023-03-27T17:53:06.741Z,69.88
2023-03-27T17:55:35.989Z,70.24
2023-03-27T17:58:08.905Z,70.36
2023-03-27T18:00:37.228Z,70.86
2023-03-27T18:03:04.113Z,71.18
2023-03-27T18:05:30.993Z,71.38
2023-03-27T18:07:57.551Z,71.61
2023-03-27T18:10:24.324Z,71.39
2023-03-27T18:12:50.975Z,69.79
2023-03-27T18:15:17.453Z,69.66
2023-03-27T18:17:43.950Z,69.09
2023-03-27T18:20:10.447Z,68.43
2023-03-27T18:22:38.071Z,68.06
2023-03-27T18:25:08.545Z,67.65
2023-03-27T18:27:44.795Z,68.03
2023-03-27T18:30:14.377Z,68.52
2023-03-27T18:32:42.716Z,67.88
2023-03-27T18:35:13.817Z,67.50
2023-03-27T18:37:41.566Z,67.46
2023-03-27T18:40:09.736Z,67.36
2023-03-27T18:42:37.615Z,67.44
2023-03-27T18:45:06.272Z,67.01
2023-03-27T18:47:32.885Z,67.26
2023-03-27T18:49:59.612Z,66.69
2023-03-27T18:52:26.854Z,66.75
2023-03-27T18:54:53.411Z,66.93
2023-03-27T18:57:20.114Z,67.10
2023-03-27T18:59:47.387Z,67.24
2023-03-27T19:02:17.185Z,67.18
2023-03-27T19:04:44.390Z,67.71
2023-03-27T19:07:11.552Z,67.79
2023-03-27T19:09:41.257Z,68.34
2023-03-27T19:12:09.524Z,69.11
2023-03-27T19:14:54.705Z,69.50
2023-03-27T19:17:55.962Z,69.74
2023-03-27T19:20:42.186Z,69.81
2023-03-27T19:23:31.067Z,70.62
2023-03-27T19:26:10.479Z,70.79
2023-03-27T19:28:41.174Z,71.33
2023-03-27T19:31:08.960Z,71.53
2023-03-27T19:33:36.115Z,71.69
2023-03-27T19:36:05.509Z,71.84
2023-03-27T19:38:32.160Z,71.82
2023-03-27T19:40:58.921Z,72.15
2023-03-27T19:43:25.894Z,72.06
2023-03-27T19:46:08.325Z,72.17
2023-03-27T19:48:42.050Z,72.34
2023-03-27T19:51:15.714Z,72.40
2023-03-27T19:53:48.926Z,72.65
2023-03-27T19:56:19.527Z,72.69
2023-03-27T19:58:45.977Z,72.50
2023-03-27T20:01:12.477Z,72.95
2023-03-27T20:03:39.876Z,72.97
2023-03-27T20:06:14.183Z,73.12
2023-03-27T20:08:42.090Z,73.40
2023-03-27T20:11:08.788Z,73.71
2023-03-27T20:13:42.563Z,73.91
2023-03-27T20:16:16.409Z,74.09
2023-03-27T20:18:45.884Z,74.42
2023-03-27T20:21:13.745Z,74.61
2023-03-27T20:23:41.860Z,74.90
2023-03-27T20:26:13.926Z,75.16
2023-03-27T20:28:45.418Z,75.59
2023-03-27T20:31:11.889Z,76.13
2023-03-27T20:33:38.429Z,76.27
2023-03-27T20:36:05.303Z,76.92
2023-03-27T20:38:32.773Z,77.05
2023-03-27T20:41:03.894Z,77.26
2023-03-27T20:43:34.786Z,77.99
2023-03-27T20:46:03.407Z,78.19
2023-03-27T20:48:40.085Z,78.56
2023-03-27T20:51:14.666Z,78.83
2023-03-27T20:53:46.366Z,79.06
2023-03-27T20:56:14.238Z,79.36
2023-03-27T20:58:42.125Z,79.62
2023-03-27T21:01:09.832Z,79.87
2023-03-27T21:03:39.322Z,80.03
2023-03-27T21:06:07.748Z,80.23
2023-03-27T21:08:34.596Z,80.65
2023-03-27T21:11:01.956Z,80.74
2023-03-27T21:13:28.893Z,81.33
2023-03-27T21:15:55.457Z,81.92
2023-03-27T21:18:22.547Z,82.40
2023-03-27T21:20:49.165Z,82.62
2023-03-27T21:23:15.954Z,82.98
2023-03-27T21:25:44.126Z,83.25
2023-03-27T21:28:11.766Z,83.64
2023-03-27T21:30:47.051Z,83.98
2023-03-27T21:33:16.135Z,84.42
2023-03-27T21:35:45.649Z,84.85
2023-03-27T21:38:13.154Z,85.09
2023-03-27T21:40:40.831Z,85.47
2023-03-27T21:43:08.848Z,85.79
2023-03-27T21:45:36.202Z,85.48
2023-03-27T21:48:02.843Z,86.09
2023-03-27T21:50:29.844Z,86.18
2023-03-27T21:52:56.499Z,86.14
2023-03-27T21:55:23.221Z,86.57
2023-03-27T21:57:49.818Z,86.67
2023-03-27T22:00:16.529Z,86.92
2023-03-27T22:02:43.137Z,87.32
2023-03-27T22:05:09.883Z,87.16
2023-03-27T22:07:36.658Z,87.38
2023-03-27T22:10:06.145Z,87.73
2023-03-27T22:12:36.176Z,87.79
2023-03-27T22:15:04.358Z,87.78
2023-03-27T22:17:30.868Z,88.03
2023-03-27T22:19:58.112Z,88.25
2023-03-27T22:22:25.076Z,88.43
2023-03-27T22:24:51.624Z,88.37
2023-03-27T22:27:18.235Z,88.58
2023-03-27T22:29:44.721Z,88.88
2023-03-27T22:32:11.407Z,88.85
2023-03-27T22:34:37.913Z,88.72
2023-03-27T22:37:04.455Z,88.94
2023-03-27T22:39:31.450Z,89.04
2023-03-27T22:41:57.998Z,89.28
2023-03-27T22:44:24.731Z,89.40
2023-03-27T22:46:52.863Z,89.55
2023-03-27T22:49:19.448Z,89.82
2023-03-27T22:51:45.891Z,89.94
2023-03-27T22:54:12.434Z,90.12
2023-03-27T22:56:38.885Z,90.35
2023-03-27T22:59:06.057Z,90.23
2023-03-27T23:01:32.670Z,90.48
2023-03-27T23:03:59.262Z,90.49
2023-03-27T23:06:25.844Z,90.70
2023-03-27T23:08:52.600Z,90.64
2023-03-27T23:11:19.717Z,90.78
2023-03-27T23:13:46.607Z,90.74
2023-03-27T23:16:13.324Z,90.81
2023-03-27T23:18:40.118Z,91.03
2023-03-27T23:21:09.675Z,90.98
2023-03-27T23:23:38.216Z,90.93
2023-03-27T23:26:06.154Z,91.02
2023-03-27T23:28:35.587Z,91.14
2023-03-27T23:31:05.280Z,91.26
2023-03-27T23:33:40.642Z,91.03
2023-03-27T23:36:20.849Z,91.22
2023-03-27T23:38:47.342Z,91.17
2023-03-27T23:41:15.369Z,91.36
2023-03-27T23:43:42.302Z,91.69
2023-03-27T23:46:10.858Z,91.66
2023-03-27T23:48:39.430Z,91.91
2023-03-27T23:51:06.949Z,92.24
2023-03-27T23:53:34.165Z,92.02
2023-03-27T23:56:01.554Z,92.41
2023-03-27T23:58:32.206Z,92.35
